Time;durP1;ratioP1;P1;durP2;ratioP2;P2;SDS_P1;SDS_P2;PMS_P1;PMS_P2;Temp;Humidity;BMP_temperature;BMP_pressure;BME280_temperature;BME280_humidity;BME280_pressure;Samples;Min_cycle;Max_cycle;Signal;HPM_P1;HPM_P2
2022/01/19 00:01:40;;;;;;;72.00;26.15;;;4.90;99.90;;;;;;5057513;28;20025;-63
2022/01/19 00:04:06;;;;;;;69.28;26.38;;;;;;;;;;5073560;28;20037;-63
2022/01/19 00:06:31;;;;;;;66.70;25.85;;;4.90;99.90;;;;;;5074894;28;20066;-63
2022/01/19 00:08:57;;;;;;;67.85;27.60;;;4.80;99.90;;;;;;5056422;28;20036;-63
2022/01/19 00:11:23;;;;;;;78.30;26.75;;;5.00;99.90;;;;;;5074608;28;20135;-63
2022/01/19 00:13:49;;;;;;;67.25;27.67;;;4.90;99.90;;;;;;5075124;28;20052;-62
2022/01/19 00:16:16;;;;;;;69.85;27.85;;;5.00;99.90;;;;;;5057012;28;20501;-62
2022/01/19 00:18:42;;;;;;;68.65;26.48;;;;;;;;;;5073213;28;20040;-62
2022/01/19 00:21:07;;;;;;;71.55;26.85;;;5.00;99.90;;;;;;5056466;28;20201;-62
2022/01/19 00:23:33;;;;;;;71.72;26.83;;;5.00;99.90;;;;;;5057105;28;20040;-62
2022/01/19 00:25:59;;;;;;;69.13;25.77;;;;;;;;;;5074754;28;20489;-62
2022/01/19 00:28:25;;;;;;;71.60;27.20;;;5.00;99.90;;;;;;5074743;28;20375;-62
2022/01/19 00:30:51;;;;;;;69.75;26.80;;;4.90;99.90;;;;;;5056846;28;20452;-62
2022/01/19 00:33:19;;;;;;;80.50;28.83;;;5.20;99.90;;;;;;5057113;28;20076;-62
2022/01/19 00:35:47;;;;;;;69.57;27.33;;;5.00;99.90;;;;;;5073237;28;20044;-62
2022/01/19 00:38:13;;;;;;;69.10;27.52;;;5.10;99.90;;;;;;5056404;28;20051;-62
2022/01/19 00:40:40;;;;;;;70.25;26.67;;;5.20;99.90;;;;;;5073529;28;20045;-62
2022/01/19 00:43:06;;;;;;;68.68;25.45;;;5.00;99.90;;;;;;5074133;28;20132;-62
2022/01/19 00:45:33;;;;;;;60.50;22.75;;;5.10;99.90;;;;;;5024103;28;20048;-62
2022/01/19 00:47:59;;;;;;;61.97;23.38;;;5.20;99.90;;;;;;5039827;28;20123;-63
2022/01/19 00:50:27;;;;;;;63.42;22.40;;;5.10;99.90;;;;;;5073719;28;20067;-63
2022/01/19 00:52:54;;;;;;;72.63;22.70;;;;;;;;;;5074761;28;20124;-63
2022/01/19 00:55:22;;;;;;;63.60;26.45;;;5.00;99.90;;;;;;5056203;28;20081;-63
2022/01/19 00:57:48;;;;;;;77.72;24.42;;;5.00;99.90;;;;;;5072507;28;20055;-63
2022/01/19 01:00:17;;;;;;;63.75;24.88;;;4.90;99.90;;;;;;5074381;28;20045;-63
2022/01/19 01:02:43;;;;;;;63.03;25.05;;;5.00;99.90;;;;;;5072709;28;20047;-63
2022/01/19 01:05:09;;;;;;;67.43;26.80;;;4.90;99.90;;;;;;5055975;28;20044;-63
2022/01/19 01:07:38;;;;;;;82.95;29.52;;;5.00;99.90;;;;;;5055549;28;20398;-63
2022/01/19 01:10:15;;;;;;;64.10;28.30;;;5.00;99.90;;;;;;5072826;28;20044;-63
2022/01/19 01:12:48;;;;;;;59.58;24.40;;;5.30;99.90;;;;;;5073730;28;20542;-63
2022/01/19 01:15:29;;;;;;;70.60;22.33;;;5.10;99.90;;;;;;5056160;28;20170;-62
2022/01/19 01:20:37;;;;;;;72.85;27.05;;;5.20;99.90;;;;;;5075929;28;20059;-63
2022/01/19 01:23:04;;;;;;;85.35;30.08;;;5.10;99.90;;;;;;5060091;28;20063;-62
2022/01/19 01:25:30;;;;;;;79.55;30.38;;;5.10;99.90;;;;;;5059756;28;20048;-62
2022/01/19 01:27:56;;;;;;;89.05;29.63;;;5.20;99.90;;;;;;5060113;28;20040;-63
2022/01/19 01:30:21;;;;;;;91.05;31.60;;;5.00;99.90;;;;;;5078312;28;20074;-62
2022/01/19 01:32:47;;;;;;;78.03;29.77;;;5.20;99.90;;;;;;5078199;28;20036;-63
2022/01/19 01:35:13;;;;;;;91.53;30.52;;;5.10;99.90;;;;;;5077361;28;20043;-63
2022/01/19 01:37:39;;;;;;;71.43;25.58;;;5.10;99.90;;;;;;5078157;28;20047;-62
2022/01/19 01:40:08;;;;;;;87.68;30.50;;;5.00;99.90;;;;;;5077956;28;20071;-63
2022/01/19 01:42:33;;;;;;;83.75;28.92;;;5.00;99.90;;;;;;5077863;28;20036;-63
2022/01/19 01:45:01;;;;;;;83.25;28.50;;;;;;;;;;5076172;28;20059;-62
2022/01/19 01:47:28;;;;;;;79.30;29.23;;;4.90;99.90;;;;;;5076206;28;20125;-62
2022/01/19 01:55:09;;;;;;;77.60;28.70;;;4.80;99.90;;;;;;5077635;28;20056;-62
2022/01/19 01:57:35;;;;;;;92.30;30.77;;;4.80;99.90;;;;;;5059822;28;20094;-62
2022/01/19 02:00:01;;;;;;;107.22;32.58;;;4.80;99.90;;;;;;5059061;28;20040;-62
2022/01/19 02:02:26;;;;;;;90.57;31.67;;;4.90;99.90;;;;;;5058725;28;20071;-63
2022/01/19 02:04:52;;;;;;;87.68;30.45;;;4.70;99.90;;;;;;5059061;28;20051;-62
2022/01/19 02:09:47;;;;;;;86.53;30.80;;;4.80;99.90;;;;;;5058979;28;20111;-63
2022/01/19 02:25:45;;;;;;;114.40;31.73;;;4.90;99.90;;;;;;5076750;28;20106;-63
2022/01/19 02:41:39;;;;;;;100.07;26.92;;;4.40;99.90;;;;;;5058135;28;20044;-63
2022/01/19 02:44:08;;;;;;;81.78;28.83;;;4.20;99.90;;;;;;5041334;28;20082;-63
2022/01/19 02:46:52;;;;;;;101.45;28.80;;;4.40;99.90;;;;;;5058164;28;20040;-62
2022/01/19 02:49:19;;;;;;;95.63;28.70;;;;;;;;;;5058743;28;20073;-62
2022/01/19 02:51:51;;;;;;;100.82;28.23;;;4.20;99.90;;;;;;5058257;28;20525;-63
2022/01/19 02:54:21;;;;;;;95.07;26.92;;;4.20;99.90;;;;;;5057856;28;20040;-63
2022/01/19 02:56:53;;;;;;;100.10;29.70;;;4.20;99.90;;;;;;5074397;28;20055;-63
2022/01/19 02:59:39;;;;;;;100.05;29.50;;;4.30;99.90;;;;;;5075600;28;20036;-63
2022/01/19 03:10:17;;;;;;;86.32;25.65;;;4.40;99.90;;;;;;5057880;28;20057;-63
2022/01/19 03:12:43;;;;;;;97.38;27.15;;;4.10;99.90;;;;;;5076356;28;20474;-62
2022/01/19 03:15:10;;;;;;;109.68;28.20;;;4.40;99.90;;;;;;5076252;28;20040;-62
2022/01/19 03:17:36;;;;;;;86.78;23.35;;;4.30;99.90;;;;;;5074533;28;20183;-62
2022/01/19 03:20:02;;;;;;;87.13;24.58;;;;;;;;;;5057788;28;20082;-62
2022/01/19 03:22:34;;;;;;;67.15;22.73;;;4.20;99.90;;;;;;5058535;28;20048;-62
2022/01/19 03:25:00;;;;;;;76.50;24.90;;;;;;;;;;5057681;28;20049;-62
2022/01/19 03:27:26;;;;;;;78.68;24.30;;;4.10;99.90;;;;;;5075943;28;20076;-62
2022/01/19 03:29:51;;;;;;;74.57;25.30;;;4.00;99.90;;;;;;5074165;28;20043;-62
2022/01/19 03:32:17;;;;;;;65.32;25.13;;;3.80;99.90;;;;;;5057441;28;20036;-63
2022/01/19 03:34:43;;;;;;;66.90;24.92;;;3.90;99.90;;;;;;5075271;28;20071;-63
2022/01/19 03:37:11;;;;;;;64.47;24.20;;;;;;;;;;5057441;28;20037;-63
2022/01/19 03:39:37;;;;;;;53.90;23.75;;;4.00;99.90;;;;;;5057147;28;20127;-62
2022/01/19 03:42:03;;;;;;;52.20;23.73;;;4.00;99.90;;;;;;5057604;28;20099;-63
2022/01/19 03:44:29;;;;;;;59.75;25.45;;;;;;;;;;5073148;28;20041;-62
2022/01/19 03:47:00;;;;;;;53.22;22.13;;;3.90;99.90;;;;;;5057436;28;20047;-62
2022/01/19 03:49:27;;;;;;;64.53;24.15;;;3.80;99.90;;;;;;5075477;28;20036;-62
2022/01/19 03:51:58;;;;;;;61.17;22.67;;;3.70;99.90;;;;;;5057394;28;20399;-63
2022/01/19 03:54:25;;;;;;;58.55;23.45;;;3.80;99.90;;;;;;5075574;28;20066;-63
2022/01/19 03:56:51;;;;;;;58.78;24.10;;;3.60;99.90;;;;;;5074068;28;20032;-63
2022/01/19 03:59:17;;;;;;;58.08;26.02;;;3.80;99.90;;;;;;5056945;28;20039;-63
2022/01/19 04:01:42;;;;;;;54.72;23.58;;;3.70;99.90;;;;;;5056894;28;20478;-62
2022/01/19 04:09:18;;;;;;;60.50;24.17;;;3.70;99.90;;;;;;5056828;28;20044;-63
2022/01/19 04:11:43;;;;;;;57.38;24.33;;;3.60;99.90;;;;;;5074387;28;20455;-62
2022/01/19 04:16:35;;;;;;;50.47;23.45;;;3.70;99.90;;;;;;5056530;28;20433;-63
2022/01/19 04:19:21;;;;;;;50.63;22.70;;;3.70;99.90;;;;;;5074538;28;20383;-63
2022/01/19 04:21:47;;;;;;;65.95;25.92;;;3.70;99.90;;;;;;5073517;28;20040;-63
2022/01/19 04:24:13;;;;;;;49.13;22.42;;;3.70;99.90;;;;;;5073622;28;20394;-62
2022/01/19 04:26:39;;;;;;;63.85;23.27;;;;;;;;;;5055820;28;20496;-63
2022/01/19 04:29:04;;;;;;;58.72;23.02;;;3.60;99.90;;;;;;5074783;28;20037;-62
2022/01/19 04:31:30;;;;;;;52.90;23.30;;;3.50;99.90;;;;;;5074734;28;20040;-63
2022/01/19 04:34:01;;;;;;;58.30;22.90;;;3.60;99.90;;;;;;5074334;28;20059;-62
2022/01/19 04:36:46;;;;;;;53.40;23.90;;;3.60;99.90;;;;;;5057236;28;20047;-63
2022/01/19 04:43:53;;;;;;;55.13;22.55;;;3.80;99.90;;;;;;5072467;28;20089;-62
2022/01/19 05:04:22;;;;;;;63.10;26.75;;;3.60;99.90;;;;;;5092346;28;20474;-63
2022/01/19 05:06:53;;;;;;;67.13;27.75;;;3.70;99.90;;;;;;5074123;28;20130;-63
2022/01/19 05:14:58;;;;;;;58.47;25.23;;;;;;;;;;5092452;28;20130;-63
2022/01/19 05:17:23;;;;;;;58.35;25.25;;;3.80;99.90;;;;;;5092163;28;20064;-63
2022/01/19 05:19:49;;;;;;;54.70;25.02;;;3.70;99.90;;;;;;5074150;28;20538;-63
2022/01/19 05:22:14;;;;;;;60.03;25.90;;;3.80;99.90;;;;;;5071003;28;20044;-62
2022/01/19 05:24:40;;;;;;;59.20;27.05;;;3.80;99.90;;;;;;5073929;28;20036;-63
2022/01/19 05:27:05;;;;;;;56.47;25.35;;;3.80;99.90;;;;;;5071273;28;20045;-63
2022/01/19 05:29:31;;;;;;;59.83;25.33;;;3.70;99.90;;;;;;5071570;28;20039;-62
2022/01/19 05:31:56;;;;;;;60.30;25.05;;;3.80;99.90;;;;;;5078242;28;20036;-63
2022/01/19 05:34:22;;;;;;;60.80;25.45;;;3.80;99.90;;;;;;5071907;28;20031;-63
2022/01/19 05:36:47;;;;;;;59.20;25.60;;;3.80;99.90;;;;;;5091407;28;20506;-63
2022/01/19 05:39:13;;;;;;;52.50;24.88;;;3.80;99.90;;;;;;5074611;28;20540;-63
2022/01/19 05:41:39;;;;;;;59.85;25.00;;;3.90;99.90;;;;;;5064286;28;20043;-63
2022/01/19 05:44:05;;;;;;;56.38;25.27;;;;;;;;;;5068011;28;20131;-63
2022/01/19 05:46:32;;;;;;;52.33;24.15;;;3.90;99.90;;;;;;5073278;28;20089;-63
2022/01/19 05:48:58;;;;;;;55.13;24.63;;;3.80;99.90;;;;;;5065324;28;20043;-63
2022/01/19 05:51:23;;;;;;;50.20;23.65;;;3.90;99.90;;;;;;5082501;28;20104;-63
2022/01/19 05:53:49;;;;;;;52.15;23.98;;;3.90;99.90;;;;;;5076416;28;20039;-63
2022/01/19 05:56:15;;;;;;;56.47;24.45;;;;;;;;;;5083486;28;20127;-63
2022/01/19 05:58:40;;;;;;;49.85;22.98;;;3.80;99.90;;;;;;5068162;28;20413;-63
2022/01/19 06:01:06;;;;;;;52.53;23.00;;;3.90;99.90;;;;;;5090669;28;20040;-63
2022/01/19 06:03:31;;;;;;;52.40;24.00;;;3.90;99.90;;;;;;5073224;28;20066;-63
2022/01/19 06:05:57;;;;;;;57.50;24.00;;;4.00;99.90;;;;;;5091292;28;20466;-63
2022/01/19 06:10:54;;;;;;;53.33;24.23;;;4.00;99.90;;;;;;5093303;28;20413;-63
2022/01/19 06:13:21;;;;;;;58.15;26.15;;;3.80;99.90;;;;;;5076074;28;20043;-61
2022/01/19 06:15:48;;;;;;;59.47;27.08;;;3.90;99.90;;;;;;5093466;28;20524;-62
2022/01/19 06:18:15;;;;;;;55.00;25.23;;;;;;;;;;5074169;28;20036;-62
2022/01/19 06:20:42;;;;;;;58.95;25.50;;;;;;;;;;5071583;28;20446;-62
2022/01/19 06:23:08;;;;;;;62.25;26.85;;;;;;;;;;5053705;28;20047;-62
2022/01/19 06:25:34;;;;;;;58.58;26.80;;;;;;;;;;5053210;28;20048;-62
2022/01/19 06:28:00;;;;;;;54.15;25.25;;;;;;;;;;5053573;28;20464;-63
2022/01/19 06:30:26;;;;;;;66.82;27.38;;;4.10;99.90;;;;;;5053508;28;20123;-63
2022/01/19 06:32:52;;;;;;;62.85;27.02;;;;;;;;;;5070887;28;20044;-62
2022/01/19 06:35:18;;;;;;;62.22;26.48;;;4.00;99.90;;;;;;5074544;28;20079;-63
2022/01/19 06:37:44;;;;;;;66.25;27.60;;;4.00;99.90;;;;;;5063792;28;20037;-63
2022/01/19 06:40:11;;;;;;;68.38;28.10;;;4.10;99.90;;;;;;5056579;28;20037;-63
2022/01/19 06:42:37;;;;;;;65.78;28.15;;;4.00;99.90;;;;;;5057052;28;20044;-63
2022/01/19 06:45:04;;;;;;;69.97;29.17;;;;;;;;;;5075306;28;20044;-63
2022/01/19 06:47:30;;;;;;;65.05;27.17;;;4.00;99.90;;;;;;5056846;28;20083;-63
2022/01/19 06:49:55;;;;;;;57.53;26.42;;;4.10;99.90;;;;;;5075088;28;20071;-63
2022/01/19 06:52:21;;;;;;;63.85;27.75;;;4.20;99.90;;;;;;5074561;28;20040;-63
2022/01/19 06:54:47;;;;;;;60.28;27.15;;;;;;;;;;5074654;28;20032;-63
2022/01/19 06:57:12;;;;;;;57.92;25.67;;;4.20;99.90;;;;;;5056842;28;20406;-63
2022/01/19 06:59:38;;;;;;;60.20;26.42;;;;;;;;;;5073066;28;20037;-62
2022/01/19 07:02:04;;;;;;;65.78;26.75;;;4.20;99.90;;;;;;5055780;28;20048;-63
2022/01/19 07:04:30;;;;;;;66.15;28.15;;;;;;;;;;5057579;28;20036;-62
2022/01/19 07:06:56;;;;;;;66.75;29.25;;;4.10;99.90;;;;;;5059019;28;20128;-63
2022/01/19 07:09:21;;;;;;;64.68;27.38;;;4.30;99.90;;;;;;5064183;28;20406;-64
2022/01/19 07:11:48;;;;;;;64.22;26.42;;;4.00;99.90;;;;;;5053361;28;20402;-62
2022/01/19 07:14:14;;;;;;;74.20;29.50;;;4.00;99.90;;;;;;5058228;28;20505;-63
2022/01/19 07:16:40;;;;;;;68.18;30.15;;;4.00;99.90;;;;;;5052010;28;20076;-63
2022/01/19 07:19:06;;;;;;;67.28;27.58;;;;;;;;;;5057560;28;20098;-62
2022/01/19 07:21:31;;;;;;;71.57;26.92;;;4.10;99.90;;;;;;5065080;28;20043;-62
2022/01/19 07:23:57;;;;;;;63.25;28.80;;;4.10;99.90;;;;;;5062498;28;20032;-63
2022/01/19 07:26:22;;;;;;;65.25;28.73;;;4.10;99.90;;;;;;5066127;28;20484;-63
2022/01/19 07:28:48;;;;;;;65.82;26.38;;;4.10;99.90;;;;;;5063202;28;20071;-63
2022/01/19 07:31:14;;;;;;;64.03;27.95;;;;;;;;;;5078761;28;20036;-63
2022/01/19 07:33:40;;;;;;;67.38;28.85;;;;;;;;;;5080680;28;20050;-62
2022/01/19 07:36:06;;;;;;;63.95;28.55;;;4.10;99.90;;;;;;5063494;28;20123;-63
2022/01/19 07:38:32;;;;;;;66.38;27.63;;;4.10;99.90;;;;;;5051708;28;20132;-62
2022/01/19 07:40:57;;;;;;;66.75;29.02;;;4.10;99.90;;;;;;5053691;28;20048;-63
2022/01/19 07:43:23;;;;;;;73.63;28.20;;;4.20;99.90;;;;;;5057677;28;20482;-63
2022/01/19 07:45:49;;;;;;;65.18;29.70;;;4.20;99.90;;;;;;5059308;28;20041;-63
2022/01/19 07:48:15;;;;;;;66.95;27.58;;;4.40;99.90;;;;;;5045597;28;20080;-62
2022/01/19 07:50:41;;;;;;;67.28;29.80;;;4.30;99.90;;;;;;5050622;28;20079;-63
2022/01/19 07:53:07;;;;;;;70.90;28.08;;;4.20;99.90;;;;;;5050820;28;20446;-63
2022/01/19 07:55:32;;;;;;;69.97;27.73;;;4.50;99.90;;;;;;5056221;28;20060;-63
2022/01/19 07:57:58;;;;;;;75.72;29.80;;;;;;;;;;5059123;28;20048;-63
2022/01/19 08:00:24;;;;;;;75.07;31.02;;;4.20;99.90;;;;;;5063493;28;20131;-63
2022/01/19 08:02:49;;;;;;;70.50;30.13;;;4.30;99.90;;;;;;5053502;28;20055;-63
2022/01/19 08:05:16;;;;;;;77.32;29.13;;;4.20;99.90;;;;;;5049793;28;20041;-62
2022/01/19 08:07:42;;;;;;;80.57;32.28;;;;;;;;;;5050025;28;20052;-61
2022/01/19 08:10:09;;;;;;;73.32;31.90;;;;;;;;;;5060691;28;20411;-63
2022/01/19 08:12:35;;;;;;;75.40;31.67;;;4.20;99.90;;;;;;5060886;28;20060;-63
2022/01/19 08:15:02;;;;;;;80.80;31.20;;;4.20;99.90;;;;;;5049827;28;20044;-61
2022/01/19 08:17:28;;;;;;;78.95;30.27;;;4.20;99.90;;;;;;5063655;28;20047;-62
2022/01/19 08:19:55;;;;;;;78.65;32.50;;;;;;;;;;5054034;28;20068;-63
2022/01/19 08:22:21;;;;;;;78.88;32.67;;;4.20;99.90;;;;;;5064203;28;20517;-63
2022/01/19 08:24:47;;;;;;;88.35;32.28;;;4.20;99.90;;;;;;5078504;28;20063;-63
2022/01/19 08:27:12;;;;;;;82.72;31.95;;;4.30;99.90;;;;;;5059103;28;20528;-62
2022/01/19 08:29:38;;;;;;;71.80;29.52;;;4.10;99.90;;;;;;5072012;28;20048;-63
2022/01/19 08:32:05;;;;;;;74.05;32.17;;;4.30;99.90;;;;;;5059327;28;20410;-63
2022/01/19 08:34:31;;;;;;;77.78;30.38;;;;;;;;;;5070200;28;20033;-63
2022/01/19 08:36:57;;;;;;;83.13;33.00;;;;;;;;;;5052265;28;20211;-62
2022/01/19 08:39:24;;;;;;;81.47;33.80;;;4.20;99.90;;;;;;5034412;28;20132;-62
2022/01/19 08:41:50;;;;;;;93.93;34.47;;;4.20;99.90;;;;;;5067401;28;20060;-62
2022/01/19 08:44:16;;;;;;;87.07;35.42;;;4.30;99.90;;;;;;5066128;28;20040;-62
2022/01/19 08:46:42;;;;;;;80.05;31.40;;;;;;;;;;5067932;28;20041;-62
2022/01/19 08:49:08;;;;;;;73.00;31.23;;;4.20;99.90;;;;;;5064508;28;20114;-62
2022/01/19 08:51:33;;;;;;;75.68;32.20;;;4.40;99.90;;;;;;5047057;28;20033;-62
2022/01/19 08:53:59;;;;;;;78.68;33.22;;;;;;;;;;5052012;28;20037;-62
2022/01/19 08:56:25;;;;;;;78.72;32.70;;;4.40;99.90;;;;;;5055943;28;20102;-63
2022/01/19 08:58:50;;;;;;;80.13;34.25;;;4.50;99.90;;;;;;5065178;28;20080;-62
2022/01/19 09:01:16;;;;;;;81.40;31.60;;;4.50;99.90;;;;;;5061412;28;20552;-62
2022/01/19 09:03:42;;;;;;;74.00;30.10;;;;;;;;;;5050037;28;20064;-62
2022/01/19 09:06:08;;;;;;;85.15;33.40;;;;;;;;;;5060016;28;20041;-62
2022/01/19 09:08:34;;;;;;;75.68;33.17;;;4.70;99.90;;;;;;5058408;28;20156;-62
2022/01/19 09:11:01;;;;;;;76.40;33.53;;;4.50;99.90;;;;;;5062903;28;20457;-62
2022/01/19 09:13:27;;;;;;;77.18;32.08;;;4.40;99.90;;;;;;5050543;28;20116;-62
2022/01/19 09:15:53;;;;;;;84.05;33.50;;;;;;;;;;5059111;28;20037;-62
2022/01/19 09:18:19;;;;;;;80.78;32.60;;;4.40;99.90;;;;;;5065218;28;20124;-62
2022/01/19 09:20:44;;;;;;;76.18;32.47;;;4.50;99.90;;;;;;5051170;28;20135;-62
2022/01/19 09:23:10;;;;;;;74.72;32.63;;;;;;;;;;5049089;28;20397;-62
2022/01/19 09:25:36;;;;;;;79.28;33.05;;;4.40;99.90;;;;;;5049092;28;20075;-62
2022/01/19 09:28:02;;;;;;;77.80;33.47;;;4.40;99.90;;;;;;5060051;28;20041;-62
2022/01/19 09:30:28;;;;;;;78.10;32.55;;;;;;;;;;5061889;28;20112;-63
2022/01/19 09:33:08;;;;;;;78.40;33.55;;;4.50;99.90;;;;;;5049035;28;20064;-62
2022/01/19 09:38:21;;;;;;;;;;;4.60;99.90;;;;;;5050312;28;20502;-63
2022/01/19 09:40:47;;;;;;;76.78;31.33;;;4.60;99.90;;;;;;5061808;28;19927;-62
2022/01/19 09:43:13;;;;;;;74.40;31.48;;;4.70;99.90;;;;;;5061313;28;20052;-62
2022/01/19 09:45:39;;;;;;;75.10;32.75;;;4.60;99.90;;;;;;5065695;28;20090;-62
2022/01/19 09:48:06;;;;;;;70.53;31.98;;;;;;;;;;5067111;28;20048;-61
2022/01/19 09:50:32;;;;;;;72.30;33.13;;;;;;;;;;5064450;28;20477;-62
2022/01/19 09:52:59;;;;;;;75.18;33.55;;;;;;;;;;5080632;28;20079;-62
2022/01/19 09:55:25;;;;;;;73.50;33.67;;;4.70;99.90;;;;;;5076761;28;20039;-62
2022/01/19 09:57:51;;;;;;;70.50;31.38;;;;;;;;;;5076677;28;20064;-62
2022/01/19 10:00:16;;;;;;;72.80;31.85;;;4.60;99.90;;;;;;5068062;28;20045;-63
2022/01/19 10:02:42;;;;;;;73.60;31.10;;;;;;;;;;5066812;28;20127;-63
2022/01/19 10:05:09;;;;;;;79.47;32.10;;;4.70;99.90;;;;;;5083399;28;20065;-63
2022/01/19 10:07:36;;;;;;;71.78;34.13;;;4.70;99.90;;;;;;5079778;28;20032;-62
2022/01/19 10:10:07;;;;;;;69.65;31.88;;;4.60;99.90;;;;;;5087922;28;20063;-62
2022/01/19 10:18:21;;;;;;;79.35;34.88;;;;;;;;;;5073504;28;20067;-60
2022/01/19 10:21:08;;;;;;;77.63;34.15;;;;;;;;;;5058819;28;20040;-61
2022/01/19 10:23:38;;;;;;;85.72;34.90;;;;;;;;;;5063337;28;20048;-62
2022/01/19 10:26:06;;;;;;;74.80;34.83;;;;;;;;;;5051254;28;20514;-62
2022/01/19 10:28:51;;;;;;;80.93;36.70;;;4.90;99.90;;;;;;5040815;28;20048;-62
2022/01/19 10:31:17;;;;;;;82.22;35.42;;;4.90;99.90;;;;;;5042085;28;20050;-63
2022/01/19 10:33:43;;;;;;;81.78;35.60;;;;;;;;;;5055536;28;20053;-63
2022/01/19 10:36:09;;;;;;;77.10;36.38;;;4.80;99.90;;;;;;5071086;28;20053;-63
2022/01/19 10:38:34;;;;;;;77.05;37.38;;;5.00;99.90;;;;;;5051176;28;20083;-63
2022/01/19 10:41:08;;;;;;;69.43;35.15;;;;;;;;;;5075263;28;20036;-62
2022/01/19 10:43:37;;;;;;;68.63;34.97;;;;;;;;;;5072981;28;20037;-62
2022/01/19 10:46:27;;;;;;;73.35;36.08;;;5.20;99.90;;;;;;5078307;28;20048;-63
2022/01/19 10:48:58;;;;;;;77.55;36.15;;;5.20;99.90;;;;;;5084084;28;20166;-63
2022/01/19 10:51:23;;;;;;;77.30;36.47;;;5.10;99.90;;;;;;5076601;28;20059;-63
2022/01/19 10:54:16;;;;;;;81.45;38.00;;;5.00;99.90;;;;;;5065174;28;20064;-63
2022/01/19 10:56:48;;;;;;;85.72;37.53;;;5.20;99.90;;;;;;5067723;28;20044;-63
2022/01/19 10:59:16;;;;;;;80.10;37.00;;;5.50;99.90;;;;;;5065270;28;20856;-63
2022/01/19 11:01:48;;;;;;;83.22;38.88;;;;;;;;;;5078049;28;20116;-62
2022/01/19 11:04:30;;;;;;;74.25;35.13;;;5.40;99.90;;;;;;5079791;28;20060;-63
2022/01/19 11:06:56;;;;;;;77.93;37.42;;;;;;;;;;5050505;28;20146;-62
2022/01/19 11:09:25;;;;;;;76.25;37.47;;;;;;;;;;5078348;28;20028;-63
2022/01/19 11:11:53;;;;;;;82.80;38.88;;;5.50;99.90;;;;;;5061388;28;20052;-63
2022/01/19 11:14:19;;;;;;;77.80;36.72;;;;;;;;;;5064083;28;20052;-63
2022/01/19 11:16:45;;;;;;;80.90;39.08;;;;;;;;;;5082709;28;20053;-63
2022/01/19 11:19:12;;;;;;;80.75;37.95;;;;;;;;;;5079574;28;20085;-65
2022/01/19 11:21:57;;;;;;;81.30;38.80;;;;;;;;;;5050588;28;20552;-64
2022/01/19 11:24:50;;;;;;;87.18;39.47;;;5.20;99.90;;;;;;5050409;28;20041;-63
2022/01/19 11:27:17;;;;;;;82.50;37.72;;;5.20;99.90;;;;;;5078160;28;20059;-63
2022/01/19 11:29:42;;;;;;;84.18;38.13;;;5.20;99.90;;;;;;5055275;28;20399;-63
2022/01/19 11:32:19;;;;;;;93.28;38.97;;;5.20;99.90;;;;;;5063007;28;20049;-63
2022/01/19 11:34:48;;;;;;;86.47;39.20;;;;;;;;;;5056628;28;20051;-63
2022/01/19 11:37:31;;;;;;;90.57;40.25;;;5.00;99.90;;;;;;5055713;28;20490;-63
2022/01/19 11:40:14;;;;;;;87.05;40.08;;;5.30;99.90;;;;;;5046239;28;20036;-63
2022/01/19 11:42:41;;;;;;;85.90;39.78;;;5.20;99.90;;;;;;5066399;28;20042;-64
2022/01/19 11:45:37;;;;;;;97.30;41.35;;;5.40;99.90;;;;;;5058361;28;20057;-62
2022/01/19 11:48:12;;;;;;;93.93;40.05;;;;;;;;;;5067168;28;20049;-64
2022/01/19 11:50:38;;;;;;;;;;;5.20;99.90;;;;;;5053898;28;20045;-63
2022/01/19 11:53:09;;;;;;;85.72;39.97;;;5.30;99.90;;;;;;5057776;28;20030;-64
2022/01/19 11:55:35;;;;;;;94.40;42.70;;;5.30;99.90;;;;;;5080329;28;20044;-64
2022/01/19 11:58:20;;;;;;;92.50;38.88;;;5.40;99.90;;;;;;5060597;28;20112;-64
2022/01/19 12:00:47;;;;;;;87.78;39.47;;;;;;;;;;5061129;28;21145;-64
2022/01/19 12:03:22;;;;;;;86.45;40.38;;;5.30;99.90;;;;;;5081496;28;20433;-64
2022/01/19 12:05:53;;;;;;;87.93;40.20;;;5.40;99.90;;;;;;5063704;28;20089;-65
2022/01/19 12:08:27;;;;;;;88.32;40.38;;;5.50;99.90;;;;;;5064841;28;20032;-64
2022/01/19 12:10:57;;;;;;;89.57;39.65;;;5.70;99.90;;;;;;5081396;28;20485;-64
2022/01/19 12:13:32;;;;;;;89.35;39.67;;;5.50;99.90;;;;;;5059729;28;20036;-64
2022/01/19 12:17:07;;;;;;;87.70;39.72;;;5.50;99.90;;;;;;5054369;28;21674;-64
2022/01/19 12:19:08;;;;;;;82.05;37.22;;;;;;;;;;5053849;28;20405;-63
2022/01/19 12:21:34;;;;;;;77.70;37.55;;;;;;;;;;5082112;28;20043;-63
2022/01/19 12:24:19;;;;;;;87.40;37.55;;;5.40;99.90;;;;;;5056102;28;20391;-65
2022/01/19 12:26:48;;;;;;;78.93;36.83;;;5.50;99.90;;;;;;5064631;28;20044;-64
2022/01/19 12:29:36;;;;;;;71.35;35.13;;;5.40;99.90;;;;;;5061772;28;20047;-64
2022/01/19 12:32:05;;;;;;;76.78;36.65;;;5.60;99.90;;;;;;5066412;28;20044;-63
2022/01/19 12:34:49;;;;;;;83.82;38.17;;;5.40;99.90;;;;;;5076083;28;20078;-63
2022/01/19 12:37:41;;;;;;;85.78;37.50;;;;;;;;;;5053675;28;20028;-63
2022/01/19 12:40:21;;;;;;;86.13;37.55;;;;;;;;;;5045613;28;20036;-63
2022/01/19 12:43:01;;;;;;;84.95;37.28;;;5.40;99.90;;;;;;5056921;28;20055;-63
2022/01/19 12:45:29;;;;;;;72.70;34.78;;;5.60;99.90;;;;;;5074332;28;20506;-63
2022/01/19 12:47:55;;;;;;;74.95;36.58;;;5.70;99.90;;;;;;5080827;28;20451;-63
2022/01/19 12:50:21;;;;;;;78.78;37.47;;;5.60;99.90;;;;;;5079425;28;20127;-63
2022/01/19 12:52:55;;;;;;;79.70;36.15;;;5.70;99.90;;;;;;5059094;28;20127;-64
2022/01/19 12:55:22;;;;;;;76.75;36.83;;;;;;;;;;5057187;28;20048;-64
2022/01/19 12:57:50;;;;;;;82.72;37.60;;;5.70;99.90;;;;;;5062905;28;20040;-64
2022/01/19 13:00:17;;;;;;;82.45;38.22;;;;;;;;;;5047622;28;20538;-63
2022/01/19 13:02:43;;;;;;;79.75;36.92;;;;;;;;;;5075510;28;20122;-63
2022/01/19 13:05:12;;;;;;;85.45;37.03;;;;;;;;;;5063798;28;22026;-63
2022/01/19 13:07:39;;;;;;;84.07;37.00;;;6.00;99.90;;;;;;5074996;28;20384;-63
2022/01/19 13:15:21;;;;;;;84.05;37.30;;;;;;;;;;5048449;28;20491;-63
2022/01/19 13:17:48;;;;;;;81.10;36.78;;;;;;;;;;5060597;28;20585;-64
2022/01/19 13:20:21;;;;;;;72.63;33.53;;;5.90;99.90;;;;;;5063951;28;20059;-64
2022/01/19 13:22:52;;;;;;;81.35;38.65;;;5.80;99.90;;;;;;5069387;28;20060;-63
2022/01/19 13:25:19;;;;;;;72.80;34.03;;;;;;;;;;5054281;28;20045;-63
2022/01/19 13:27:46;;;;;;;74.35;34.75;;;;;;;;;;5072095;28;20044;-62
2022/01/19 13:30:15;;;;;;;73.00;33.70;;;5.70;99.90;;;;;;5053361;28;20041;-63
2022/01/19 13:32:41;;;;;;;72.80;35.28;;;5.50;99.90;;;;;;5062912;28;20037;-63
2022/01/19 13:35:10;;;;;;;72.32;32.67;;;5.70;99.90;;;;;;5055266;28;20044;-64
2022/01/19 13:37:51;;;;;;;73.97;32.72;;;5.60;99.90;;;;;;5073227;28;20120;-64
2022/01/19 13:40:22;;;;;;;65.45;31.67;;;5.90;99.90;;;;;;5049000;28;20032;-63
2022/01/19 13:42:58;;;;;;;66.05;30.25;;;;;;;;;;5053600;28;20897;-64
2022/01/19 13:45:49;;;;;;;;;;;;;;;;;;5073745;28;20048;-63
2022/01/19 13:50:53;;;;;;;75.50;32.70;;;5.80;99.90;;;;;;5051926;28;20141;-63
2022/01/19 13:53:34;;;;;;;74.60;34.03;;;5.60;99.90;;;;;;5052184;28;20712;-64
2022/01/19 13:56:03;;;;;;;66.25;30.95;;;5.90;99.90;;;;;;5053108;28;20555;-63
2022/01/19 13:58:42;;;;;;;67.03;30.00;;;5.70;99.90;;;;;;5068561;28;20171;-63
2022/01/19 14:01:13;;;;;;;65.63;31.73;;;5.70;99.90;;;;;;5072342;28;20098;-63
2022/01/19 14:03:45;;;;;;;61.80;31.50;;;5.80;99.90;;;;;;5056029;28;20052;-63
2022/01/19 14:06:26;;;;;;;64.25;30.15;;;5.70;99.90;;;;;;5052636;28;20044;-63
2022/01/19 14:09:07;;;;;;;63.25;30.55;;;5.80;99.90;;;;;;5053481;28;20441;-63
2022/01/19 14:11:34;;;;;;;73.55;31.95;;;;;;;;;;5072048;28;20095;-63
2022/01/19 14:14:05;;;;;;;66.57;29.13;;;;;;;;;;5053000;28;20475;-64
2022/01/19 14:16:38;;;;;;;71.50;33.33;;;5.70;99.90;;;;;;5065002;28;20397;-64
2022/01/19 14:19:24;;;;;;;60.95;29.38;;;5.40;99.90;;;;;;5051525;28;20055;-63
2022/01/19 14:21:56;;;;;;;64.95;30.48;;;5.70;99.90;;;;;;5061534;28;20033;-62
2022/01/19 14:24:23;;;;;;;64.03;30.73;;;;;;;;;;5071225;28;20041;-63
2022/01/19 14:26:50;;;;;;;65.75;29.02;;;;;;;;;;5050654;28;20129;-60
2022/01/19 14:29:15;;;;;;;64.47;29.05;;;5.70;99.90;;;;;;5046604;28;20048;-63
2022/01/19 14:31:55;;;;;;;70.70;30.58;;;;;;;;;;5063361;28;20058;-63
2022/01/19 14:34:33;;;;;;;58.42;28.10;;;5.60;99.90;;;;;;5061763;28;20094;-63
2022/01/19 14:37:15;;;;;;;58.05;28.10;;;5.60;99.90;;;;;;5054239;28;20136;-62
2022/01/19 14:39:58;;;;;;;62.80;28.85;;;5.70;99.90;;;;;;5052378;28;20044;-61
2022/01/19 14:42:30;;;;;;;73.38;30.63;;;5.70;99.90;;;;;;5055242;28;20050;-63
2022/01/19 14:45:19;;;;;;;61.28;28.20;;;5.50;99.90;;;;;;5053936;28;20048;-63
2022/01/19 14:47:44;;;;;;;62.90;28.65;;;5.70;99.90;;;;;;5076261;28;20038;-63
2022/01/19 14:50:26;;;;;;;61.20;27.40;;;;;;;;;;5078375;28;20036;-63